| time (UTC) | temp C | wind direction | speed KPH | gust KPH | rain 1hr cm | rain 24hr cm | rain mn cm | humidity % | barometer mb |
| 20260510010556 | 20 | 246 | 3.2 | 16.1 | 0.00 | 0.00 | 0.00 | 69 | 1010.4 |
| 20260510005031 | 21 | 250 | 3.2 | 12.9 | 0.00 | 0.00 | 0.00 | 67 | 1010.4 |
| 20260510003528 | 21 | 271 | 8.0 | 17.7 | 0.00 | 0.00 | 0.00 | 64 | 1010.2 |
| 20260510002027 | 22 | 236 | 4.8 | 14.5 | 0.00 | 0.00 | 0.00 | 63 | 1010.1 |
| 20260510000525 | 22 | 227 | 0.0 | 0.0 | 0.00 | 0.00 | 0.00 | 62 | 1010.3 |
| 20260509235021 | 22 | 253 | 0.0 | 12.9 | 0.00 | 0.00 | 0.00 | 64 | 1010.2 |
| 20260509233522 | 22 | 245 | 1.6 | 16.1 | 0.00 | 0.00 | 0.00 | 63 | 1010.2 |
| 20260509232018 | 22 | 222 | 1.6 | 12.9 | 0.00 | 0.00 | 0.00 | 64 | 1010.2 |
| 20260509230517 | 22 | 223 | 1.6 | 11.3 | 0.00 | 0.00 | 0.00 | 63 | 1010.4 |
| 20260509225014 | 22 | 229 | 1.6 | 14.5 | 0.00 | 0.00 | 0.00 | 63 | 1010.5 |
| 20260509223539 | 22 | 246 | 1.6 | 20.9 | 0.00 | 0.00 | 0.00 | 63 | 1010.5 |
| 20260509222036 | 22 | 257 | 1.6 | 16.1 | 0.00 | 0.00 | 0.00 | 64 | 1010.7 |
| 20260509220534 | 22 | 167 | 1.6 | 16.1 | 0.00 | 0.00 | 0.00 | 63 | 1010.8 |
| 20260509215029 | 22 | 267 | 3.2 | 16.1 | 0.00 | 0.00 | 0.00 | 62 | 1010.8 |
| 20260509213527 | 23 | 201 | 1.6 | 16.1 | 0.00 | 0.00 | 0.00 | 62 | 1010.8 |
| 20260509212020 | 22 | 228 | 3.2 | 19.3 | 0.00 | 0.00 | 0.00 | 63 | 1011.0 |
| 20260509210518 | 23 | 233 | 3.2 | 14.5 | 0.00 | 0.00 | 0.00 | 62 | 1011.1 |
| 20260509205036 | 22 | 242 | 3.2 | 16.1 | 0.00 | 0.00 | 0.00 | 63 | 1011.3 |
| 20260509203534 | 22 | 221 | 3.2 | 14.5 | 0.00 | 0.00 | 0.00 | 63 | 1011.2 |
| 20260509202028 | 23 | 223 | 1.6 | 17.7 | 0.00 | 0.00 | 0.00 | 62 | 1011.2 |
| 20260509200528 | 23 | 274 | 8.0 | 19.3 | 0.00 | 0.00 | 0.00 | 61 | 1011.4 |
| 20260509195043 | 22 | 263 | 9.7 | 19.3 | 0.00 | 0.00 | 0.00 | 62 | 1011.2 |
| 20260509193535 | 24 | 208 | 1.6 | 12.9 | 0.00 | 0.00 | 0.00 | 60 | 1011.3 |
| 20260509192038 | 23 | 265 | 8.0 | 16.1 | 0.00 | 0.00 | 0.00 | 61 | 1011.5 |
| 20260509190542 | 23 | 274 | 6.4 | 19.3 | 0.00 | 0.00 | 0.00 | 62 | 1011.6 |
| 20260509185031 | 23 | 256 | 4.8 | 16.1 | 0.00 | 0.00 | 0.00 | 62 | 1011.6 |
| 20260509183531 | 23 | 252 | 1.6 | 14.5 | 0.00 | 0.00 | 0.00 | 63 | 1011.6 |
| 20260509182022 | 22 | 268 | 6.4 | 14.5 | 0.00 | 0.00 | 0.00 | 64 | 1011.7 |
| 20260509180534 | 22 | 265 | 3.2 | 12.9 | 0.00 | 0.00 | 0.00 | 65 | 1011.7 |
| 20260509175024 | 22 | 249 | 0.0 | 11.3 | 0.00 | 0.00 | 0.00 | 66 | 1011.8 |
| 20260509173543 | 21 | 276 | 0.0 | 12.9 | 0.00 | 0.00 | 0.00 | 67 | 1011.8 |
| 20260509172028 | 21 | 273 | 0.0 | 0.0 | 0.00 | 0.00 | 0.00 | 70 | 1011.7 |
| 20260509170520 | 20 | 277 | 1.6 | 11.3 | 0.00 | 0.00 | 0.00 | 73 | 1011.8 |
| 20260509165028 | 19 | 279 | 3.2 | 11.3 | 0.00 | 0.00 | 0.00 | 74 | 1011.7 |
| 20260509163517 | 18 | 275 | 0.0 | 0.0 | 0.00 | 0.00 | 0.00 | 75 | 1011.8 |
| 20260509162027 | 18 | 276 | 0.0 | 0.0 | 0.00 | 0.00 | 0.00 | 77 | 1011.9 |
| 20260509160536 | 17 | 276 | 0.0 | 0.0 | 0.00 | 0.00 | 0.00 | 80 | 1012.0 |
| 20260509155044 | 16 | 276 | 0.0 | 0.0 | 0.00 | 0.00 | 0.00 | 81 | 1012.0 |
| 20260509153521 | 16 | 276 | 0.0 | 4.8 | 0.00 | 0.00 | 0.00 | 82 | 1012.0 |
| 20260509152025 | 16 | 276 | 0.0 | 0.0 | 0.00 | 0.00 | 0.00 | 83 | 1011.9 |
| 20260509150534 | 16 | 276 | 0.0 | 0.0 | 0.00 | 0.00 | 0.00 | 84 | 1011.9 |
| 20260509145020 | 15 | 276 | 0.0 | 0.0 | 0.00 | 0.00 | 0.00 | 84 | 1011.9 |
| 20260509143515 | 15 | 276 | 0.0 | 0.0 | 0.00 | 0.00 | 0.00 | 85 | 1011.9 |
| 20260509142027 | 15 | 276 | 0.0 | 0.0 | 0.00 | 0.00 | 0.00 | 85 | 1012.0 |
| 20260509140534 | 15 | 279 | 0.0 | 0.0 | 0.00 | 0.00 | 0.00 | 85 | 1012.0 |
| 20260509135025 | 15 | 279 | 0.0 | 0.0 | 0.00 | 0.00 | 0.00 | 86 | 1012.0 |
| 20260509133519 | 15 | 279 | 0.0 | 0.0 | 0.00 | 0.00 | 0.00 | 85 | 1011.7 |
| 20260509132032 | 15 | 279 | 0.0 | 0.0 | 0.00 | 0.00 | 0.00 | 86 | 1011.6 |
| 20260509130527 | 15 | 279 | 0.0 | 0.0 | 0.00 | 0.00 | 0.00 | 86 | 1011.7 |
| 20260509125041 | 15 | 279 | 0.0 | 0.0 | 0.00 | 0.00 | 0.00 | 86 | 1011.7 |
| 20260509123519 | 15 | 279 | 0.0 | 0.0 | 0.00 | 0.00 | 0.00 | 86 | 1011.8 |
| 20260509122015 | 15 | 279 | 0.0 | 0.0 | 0.00 | 0.00 | 0.00 | 86 | 1011.7 |
| 20260509120533 | 15 | 280 | 0.0 | 0.0 | 0.00 | 0.00 | 0.00 | 86 | 1011.5 |
| 20260509115030 | 15 | 280 | 0.0 | 0.0 | 0.00 | 0.00 | 0.00 | 86 | 1011.5 |
| 20260509113529 | 15 | 280 | 0.0 | 0.0 | 0.00 | 0.00 | 0.00 | 86 | 1011.5 |
| 20260509112025 | 15 | 280 | 0.0 | 0.0 | 0.00 | 0.00 | 0.00 | 86 | 1011.6 |
| 20260509110525 | 15 | 280 | 0.0 | 0.0 | 0.00 | 0.00 | 0.00 | 86 | 1011.7 |
| 20260509105043 | 15 | 280 | 0.0 | 0.0 | 0.00 | 0.00 | 0.00 | 86 | 1011.6 |
| 20260509103519 | 15 | 280 | 0.0 | 0.0 | 0.00 | 0.00 | 0.00 | 86 | 1011.7 |
| 20260509102016 | 16 | 280 | 0.0 | 0.0 | 0.00 | 0.00 | 0.00 | 85 | 1011.6 |
| 20260509100533 | 16 | 280 | 0.0 | 0.0 | 0.00 | 0.00 | 0.00 | 85 | 1011.7 |
| 20260509095037 | 16 | 280 | 0.0 | 0.0 | 0.00 | 0.00 | 0.00 | 85 | 1011.8 |
| 20260509093532 | 16 | 280 | 0.0 | 0.0 | 0.00 | 0.00 | 0.00 | 85 | 1011.9 |
| 20260509092027 | 16 | 280 | 0.0 | 0.0 | 0.00 | 0.00 | 0.00 | 86 | 1012.0 |
| 20260509090523 | 16 | 280 | 0.0 | 0.0 | 0.00 | 0.00 | 0.00 | 85 | 1012.1 |
| 20260509085019 | 16 | 280 | 0.0 | 0.0 | 0.00 | 0.00 | 0.00 | 85 | 1012.2 |
| 20260509083517 | 16 | 282 | 0.0 | 0.0 | 0.00 | 0.00 | 0.00 | 85 | 1012.2 |
| 20260509082013 | 16 | 284 | 0.0 | 0.0 | 0.00 | 0.00 | 0.00 | 86 | 1012.3 |
| 20260509080525 | 16 | 284 | 0.0 | 0.0 | 0.00 | 0.00 | 0.00 | 86 | 1012.3 |
| 20260509075042 | 16 | 284 | 0.0 | 0.0 | 0.00 | 0.00 | 0.00 | 86 | 1012.6 |
| 20260509073536 | 15 | 284 | 0.0 | 0.0 | 0.00 | 0.00 | 0.00 | 86 | 1012.5 |
| 20260509072048 | 15 | 284 | 0.0 | 0.0 | 0.00 | 0.00 | 0.00 | 86 | 1012.7 |
| 20260509070542 | 16 | 284 | 0.0 | 0.0 | 0.00 | 0.00 | 0.00 | 86 | 1012.9 |
| 20260509065027 | 15 | 284 | 0.0 | 0.0 | 0.00 | 0.00 | 0.00 | 86 | 1013.0 |
| 20260509063544 | 15 | 284 | 0.0 | 0.0 | 0.00 | 0.00 | 0.00 | 85 | 1013.0 |
| 20260509062021 | 15 | 284 | 0.0 | 0.0 | 0.00 | 0.00 | 0.00 | 85 | 1012.9 |
| 20260509060545 | 15 | 284 | 0.0 | 0.0 | 0.00 | 0.00 | 0.00 | 85 | 1013.0 |
| 20260509055041 | 15 | 284 | 0.0 | 0.0 | 0.00 | 0.00 | 0.00 | 85 | 1013.1 |
| 20260509053516 | 15 | 284 | 0.0 | 0.0 | 0.00 | 0.00 | 0.00 | 85 | 1013.2 |
| 20260509052030 | 15 | 284 | 0.0 | 0.0 | 0.00 | 0.00 | 0.00 | 84 | 1013.1 |
| 20260509050527 | 16 | 284 | 0.0 | 0.0 | 0.00 | 0.00 | 0.00 | 84 | 1013.2 |
| 20260509045023 | 16 | 284 | 0.0 | 0.0 | 0.00 | 0.00 | 0.00 | 84 | 1013.1 |
| 20260509043525 | 16 | 284 | 0.0 | 0.0 | 0.00 | 0.00 | 0.00 | 83 | 1012.9 |
| 20260509042038 | 16 | 284 | 0.0 | 0.0 | 0.00 | 0.00 | 0.00 | 83 | 1012.9 |
| 20260509040524 | 16 | 282 | 0.0 | 0.0 | 0.00 | 0.00 | 0.00 | 82 | 1012.9 |
| 20260509035018 | 16 | 279 | 0.0 | 9.7 | 0.00 | 0.00 | 0.00 | 81 | 1012.7 |
| 20260509033517 | 17 | 276 | 0.0 | 6.4 | 0.00 | 0.00 | 0.00 | 81 | 1012.5 |
| 20260509032053 | 17 | 277 | 0.0 | 4.8 | 0.00 | 0.00 | 0.00 | 80 | 1012.4 |
| 20260509030530 | 17 | 270 | 0.0 | 0.0 | 0.00 | 0.00 | 0.00 | 79 | 1012.4 |
| 20260509025026 | 18 | 272 | 1.6 | 9.7 | 0.00 | 0.00 | 0.00 | 77 | 1012.1 |
| 20260509023522 | 18 | 263 | 0.0 | 9.7 | 0.00 | 0.00 | 0.00 | 76 | 1011.9 |
| 20260509022018 | 19 | 268 | 0.0 | 11.3 | 0.00 | 0.00 | 0.00 | 74 | 1012.0 |
| 20260509020515 | 20 | 257 | 1.6 | 12.9 | 0.00 | 0.00 | 0.00 | 73 | 1011.8 |
| 20260509015013 | 20 | 254 | 1.6 | 14.5 | 0.00 | 0.00 | 0.00 | 71 | 1011.7 |
| 20260509013534 | 21 | 287 | 1.6 | 11.3 | 0.00 | 0.00 | 0.00 | 69 | 1011.8 |
| 20260509012013 | 21 | 291 | 3.2 | 11.3 | 0.00 | 0.00 | 0.00 | 68 | 1011.8 |